createdAt,value
2022-12-12T00:04:46.739Z,11.93
2022-12-12T00:07:19.696Z,11.68
2022-12-12T00:10:13.594Z,11.40
2022-12-12T00:13:06.010Z,11.73
2022-12-12T00:15:33.800Z,11.13
2022-12-12T00:18:01.827Z,11.82
2022-12-12T00:20:33.909Z,12.10
2022-12-12T00:23:01.723Z,10.45
2022-12-12T00:25:29.792Z,11.70
2022-12-12T00:27:57.781Z,11.43
2022-12-12T00:30:26.011Z,11.27
2022-12-12T00:35:59.890Z,10.02
2022-12-12T00:38:32.013Z,10.48
2022-12-12T00:41:01.258Z,10.60
2022-12-12T00:46:24.341Z,9.20
2022-12-12T00:48:55.912Z,10.05
2022-12-12T00:51:25.955Z,11.18
2022-12-12T00:53:53.858Z,10.50
2022-12-12T00:56:28.017Z,9.38
2022-12-12T00:58:58.088Z,8.77
2022-12-12T01:01:28.594Z,11.20
2022-12-12T01:03:56.517Z,11.35
2022-12-12T01:06:29.679Z,10.25
2022-12-12T01:08:58.046Z,10.50
2022-12-12T01:11:30.953Z,10.10
2022-12-12T01:14:02.845Z,10.18
2022-12-12T01:16:29.822Z,9.65
2022-12-12T01:19:01.784Z,9.73
2022-12-12T01:21:29.761Z,10.15
2022-12-12T01:23:57.790Z,10.85
2022-12-12T01:26:49.915Z,11.27
2022-12-12T01:29:21.671Z,9.15
2022-12-12T01:31:49.728Z,10.68
2022-12-12T01:34:17.750Z,9.27
2022-12-12T01:36:45.743Z,9.13
2022-12-12T01:39:13.703Z,9.38
2022-12-12T01:41:43.303Z,11.10
2022-12-12T01:44:42.276Z,11.38
2022-12-12T01:50:05.844Z,9.45
2022-12-12T01:52:42.961Z,9.85
2022-12-12T01:55:15.544Z,9.68
2022-12-12T01:57:49.196Z,10.15
2022-12-12T02:00:18.754Z,8.80
2022-12-12T02:02:48.825Z,9.98
2022-12-12T02:05:25.356Z,10.30
2022-12-12T02:08:00.950Z,9.65
2022-12-12T02:10:32.989Z,10.32
2022-12-12T02:13:03.388Z,11.32
2022-12-12T02:15:55.885Z,10.32
2022-12-12T02:18:40.990Z,10.77
2022-12-12T02:21:34.434Z,9.82
2022-12-12T02:24:21.658Z,8.75
2022-12-12T02:27:41.761Z,8.95
2022-12-12T02:30:29.274Z,10.10
2022-12-12T02:33:07.227Z,10.35
2022-12-12T02:35:47.110Z,10.10
2022-12-12T02:38:47.986Z,10.20
2022-12-12T02:41:44.488Z,9.50
2022-12-12T02:44:35.245Z,9.10
2022-12-12T02:47:21.046Z,9.48
2022-12-12T02:50:01.935Z,9.70
2022-12-12T02:52:30.667Z,8.43
2022-12-12T02:55:02.719Z,9.93
2022-12-12T02:57:39.342Z,9.55
2022-12-12T03:00:15.615Z,9.38
2022-12-12T03:03:52.021Z,10.48
2022-12-12T03:06:59.344Z,10.35
2022-12-12T03:09:34.252Z,9.50
2022-12-12T03:12:33.096Z,9.25
2022-12-12T03:15:26.163Z,10.70
2022-12-12T03:18:21.514Z,9.63
2022-12-12T03:21:02.694Z,10.02
2022-12-12T03:23:46.821Z,9.02
2022-12-12T03:26:29.579Z,8.57
2022-12-12T03:29:11.169Z,10.82
2022-12-12T03:31:49.672Z,9.52
2022-12-12T03:34:26.742Z,10.07
2022-12-12T03:37:04.213Z,9.57
2022-12-12T03:43:16.994Z,9.68
2022-12-12T03:46:03.978Z,9.82
2022-12-12T03:48:36.786Z,9.70
2022-12-12T03:51:21.195Z,10.82
2022-12-12T03:54:32.308Z,9.68
2022-12-12T03:57:26.568Z,8.90
2022-12-12T04:00:18.523Z,10.48
2022-12-12T04:02:57.695Z,10.80
2022-12-12T04:05:34.991Z,9.02
2022-12-12T04:08:07.418Z,10.20
2022-12-12T04:11:00.723Z,9.57
2022-12-12T04:13:45.061Z,9.98
2022-12-12T04:16:14.153Z,11.32
2022-12-12T04:18:58.422Z,10.02
2022-12-12T04:22:01.184Z,10.70
2022-12-12T04:24:50.085Z,10.23
2022-12-12T04:27:32.914Z,9.98
2022-12-12T04:30:04.506Z,9.77
2022-12-12T04:32:52.796Z,8.18
2022-12-12T04:35:49.841Z,12.23
2022-12-12T04:38:21.807Z,10.98
2022-12-12T04:41:17.314Z,10.52
2022-12-12T04:43:49.674Z,10.65
2022-12-12T04:46:27.467Z,9.18
2022-12-12T04:49:05.551Z,10.90
2022-12-12T04:51:42.367Z,10.43
2022-12-12T04:54:27.807Z,10.43
2022-12-12T04:57:07.158Z,11.35
2022-12-12T04:59:37.363Z,9.68
2022-12-12T05:02:14.823Z,9.82
2022-12-12T05:05:23.298Z,9.95
2022-12-12T05:08:19.041Z,9.40
2022-12-12T05:10:55.894Z,10.27
2022-12-12T05:13:29.342Z,9.77
2022-12-12T05:16:00.334Z,10.02
2022-12-12T05:22:11.714Z,10.95
2022-12-12T05:24:39.723Z,10.63
2022-12-12T05:27:34.239Z,12.88
2022-12-12T05:30:01.715Z,11.20
2022-12-12T05:32:29.678Z,11.40
2022-12-12T05:35:28.805Z,12.30
2022-12-12T05:37:55.729Z,10.65
2022-12-12T05:40:27.833Z,10.20
2022-12-12T05:43:00.705Z,9.18
2022-12-12T05:45:27.799Z,10.15
2022-12-12T05:47:55.681Z,12.32
2022-12-12T05:50:23.681Z,10.77
2022-12-12T05:52:51.690Z,11.02
2022-12-12T05:55:21.823Z,10.25
2022-12-12T05:57:49.682Z,10.05
2022-12-12T06:00:17.895Z,12.20
2022-12-12T06:02:45.990Z,10.15
2022-12-12T06:05:14.225Z,11.90
2022-12-12T06:07:41.956Z,10.30
2022-12-12T06:10:09.991Z,11.02
2022-12-12T06:12:38.288Z,9.80
2022-12-12T06:15:06.891Z,11.35
2022-12-12T06:17:33.842Z,10.93
2022-12-12T06:20:06.683Z,10.05
2022-12-12T06:22:35.919Z,11.50
2022-12-12T06:25:09.222Z,9.98
2022-12-12T06:27:37.739Z,11.27
2022-12-12T06:30:06.988Z,11.50
2022-12-12T06:32:33.693Z,11.90
2022-12-12T06:35:27.917Z,11.65
2022-12-12T06:37:59.752Z,11.07
2022-12-12T06:40:27.708Z,11.82
2022-12-12T06:42:55.708Z,9.63
2022-12-12T06:45:23.881Z,11.10
2022-12-12T06:47:52.016Z,11.23
2022-12-12T06:50:23.684Z,11.25
2022-12-12T06:52:51.753Z,10.85
2022-12-12T06:55:23.548Z,11.82
2022-12-12T06:57:51.709Z,12.75
2022-12-12T07:00:20.169Z,10.32
2022-12-12T07:02:47.744Z,11.70
2022-12-12T07:05:15.804Z,11.55
2022-12-12T07:07:43.815Z,10.93
2022-12-12T07:10:21.090Z,12.63
2022-12-12T07:13:13.888Z,12.65
2022-12-12T07:15:47.395Z,11.65
2022-12-12T07:18:17.513Z,12.43
2022-12-12T07:20:46.299Z,11.90
2022-12-12T07:23:16.415Z,11.40
2022-12-12T07:25:45.913Z,11.80
2022-12-12T07:28:19.944Z,11.10
2022-12-12T07:30:55.902Z,11.05
2022-12-12T07:33:29.745Z,12.70
2022-12-12T07:36:12.005Z,11.63
2022-12-12T07:39:09.087Z,11.25
2022-12-12T07:41:46.058Z,10.60
2022-12-12T07:44:25.371Z,9.93
2022-12-12T07:46:53.872Z,10.85
2022-12-12T07:52:17.974Z,12.20
2022-12-12T07:54:48.254Z,12.07
2022-12-12T07:57:32.485Z,10.00
2022-12-12T08:00:07.640Z,11.65
2022-12-12T08:02:40.168Z,10.82
2022-12-12T08:05:36.530Z,10.95
2022-12-12T08:08:49.991Z,10.65
2022-12-12T08:14:49.558Z,11.70
2022-12-12T08:18:19.197Z,12.45
2022-12-12T08:20:53.921Z,11.90
2022-12-12T08:23:29.264Z,11.77
2022-12-12T08:26:09.390Z,12.15
2022-12-12T08:28:38.662Z,12.10
2022-12-12T08:34:16.546Z,11.18
2022-12-12T08:36:51.617Z,11.68
2022-12-12T08:39:52.716Z,12.55
2022-12-12T08:42:35.576Z,12.65
2022-12-12T08:45:15.473Z,12.05
2022-12-12T08:47:51.757Z,12.05
2022-12-12T08:50:54.722Z,12.13
2022-12-12T08:53:42.029Z,12.65
2022-12-12T08:56:34.514Z,10.77
2022-12-12T09:02:32.100Z,12.07
2022-12-12T09:08:20.328Z,12.13
2022-12-12T09:10:55.244Z,12.45
2022-12-12T09:13:26.800Z,12.52
2022-12-12T09:16:05.399Z,11.85
2022-12-12T09:18:35.019Z,11.55
2022-12-12T09:21:02.188Z,13.20
2022-12-12T09:23:31.707Z,11.52
2022-12-12T09:26:12.370Z,11.32
2022-12-12T09:29:12.934Z,12.07
2022-12-12T09:31:47.303Z,12.48
2022-12-12T09:34:18.955Z,12.85
2022-12-12T09:36:52.315Z,12.63
2022-12-12T09:39:20.025Z,11.68
2022-12-12T09:41:51.421Z,11.60
2022-12-12T09:44:22.661Z,11.43
2022-12-12T09:47:02.614Z,10.02
2022-12-12T09:52:52.598Z,11.30
2022-12-12T09:55:42.656Z,11.93
2022-12-12T10:02:09.227Z,10.90
2022-12-12T10:04:51.020Z,11.55
2022-12-12T10:10:26.862Z,10.90
2022-12-12T10:13:09.175Z,12.57
2022-12-12T10:16:21.207Z,10.52
2022-12-12T10:21:41.945Z,12.05
2022-12-12T10:24:51.505Z,11.68
2022-12-12T10:27:20.217Z,11.70
2022-12-12T10:30:21.011Z,10.38
2022-12-12T10:33:13.612Z,12.73
2022-12-12T10:36:32.927Z,12.00
2022-12-12T10:39:21.735Z,11.73
2022-12-12T10:42:30.763Z,9.80
2022-12-12T10:45:55.884Z,8.38
2022-12-12T10:48:46.714Z,8.85
2022-12-12T10:51:21.341Z,8.13
2022-12-12T10:53:57.614Z,8.13
2022-12-12T10:59:56.113Z,8.07
2022-12-12T11:02:51.051Z,9.98
2022-12-12T11:05:51.174Z,9.88
2022-12-12T11:09:22.794Z,10.82
2022-12-12T11:15:17.209Z,9.55
2022-12-12T11:17:52.417Z,9.80
2022-12-12T11:20:24.644Z,9.02
2022-12-12T11:26:11.877Z,9.02
2022-12-12T11:28:44.137Z,9.43
2022-12-12T11:31:18.645Z,9.68
2022-12-12T11:34:08.910Z,9.68
2022-12-12T11:36:41.724Z,9.73
2022-12-12T11:42:39.987Z,10.60
2022-12-12T11:45:16.725Z,10.27
2022-12-12T11:47:50.499Z,10.40
2022-12-12T11:53:45.092Z,10.10
2022-12-12T11:57:01.270Z,11.20
2022-12-12T12:00:06.170Z,10.25
2022-12-12T12:03:26.460Z,12.35
2022-12-12T12:06:12.106Z,10.90
2022-12-12T12:09:06.814Z,11.48
2022-12-12T12:12:19.368Z,11.23
2022-12-12T12:15:24.043Z,11.20
2022-12-12T12:18:29.783Z,10.95
2022-12-12T12:54:23.523Z,10.60
2022-12-12T12:57:00.016Z,11.82
2022-12-12T12:59:41.346Z,11.55
2022-12-12T13:02:25.286Z,10.73
2022-12-12T13:05:14.365Z,10.05
2022-12-12T13:07:56.561Z,10.55
2022-12-12T13:10:29.541Z,12.15
2022-12-12T13:13:07.048Z,11.23
2022-12-12T13:15:45.729Z,10.57
2022-12-12T13:18:16.946Z,10.77
2022-12-12T13:24:23.747Z,9.07
2022-12-12T13:27:05.995Z,11.48
2022-12-12T13:29:48.525Z,10.48
2022-12-12T13:32:47.730Z,10.45
2022-12-12T13:35:32.687Z,10.68
2022-12-12T13:41:10.238Z,10.25
2022-12-12T13:44:06.291Z,11.38
2022-12-12T13:46:37.928Z,10.57
2022-12-12T13:52:31.481Z,11.13
2022-12-12T13:55:20.218Z,10.20
2022-12-12T14:01:32.497Z,10.18
2022-12-12T14:04:03.184Z,10.77
2022-12-12T14:06:32.262Z,11.35
2022-12-12T14:09:01.362Z,10.65
2022-12-12T14:11:36.572Z,12.23
2022-12-12T14:14:11.417Z,11.38
2022-12-12T14:19:40.135Z,9.20
2022-12-12T14:23:03.122Z,10.48
2022-12-12T14:25:45.474Z,10.82
2022-12-12T14:28:32.003Z,10.18
2022-12-12T14:31:35.096Z,9.38
2022-12-12T14:34:19.353Z,11.90
2022-12-12T14:37:18.756Z,10.52
2022-12-12T14:39:55.777Z,9.93
2022-12-12T14:43:17.826Z,9.95
2022-12-12T14:45:55.498Z,11.45
2022-12-12T14:48:36.821Z,11.05
2022-12-12T14:51:15.813Z,9.85
2022-12-12T14:53:56.128Z,11.30
2022-12-12T14:56:38.017Z,9.88
2022-12-12T15:02:58.203Z,10.45
2022-12-12T15:05:31.112Z,10.68
2022-12-12T15:08:35.182Z,11.02
2022-12-12T15:11:09.357Z,11.35
2022-12-12T15:13:40.944Z,11.02
2022-12-12T15:19:05.193Z,10.13
2022-12-12T15:21:36.539Z,10.60
2022-12-12T15:24:05.731Z,11.07
2022-12-12T15:29:32.371Z,11.77
2022-12-12T15:32:03.926Z,11.95
2022-12-12T15:34:47.245Z,12.13
2022-12-12T15:37:22.563Z,13.63
2022-12-12T15:40:14.900Z,14.05
2022-12-12T15:42:53.092Z,14.52
2022-12-12T15:45:43.822Z,13.20
2022-12-12T15:48:19.181Z,12.60
2022-12-12T15:50:58.733Z,12.75
2022-12-12T15:56:29.235Z,13.18
2022-12-12T15:59:24.364Z,13.70
2022-12-12T16:01:51.738Z,11.80
2022-12-12T16:05:01.090Z,12.10
2022-12-12T16:07:41.838Z,12.65
2022-12-12T16:13:25.868Z,10.77
2022-12-12T16:18:51.814Z,12.43
2022-12-12T16:21:19.726Z,13.18
2022-12-12T16:24:33.107Z,14.05
2022-12-12T16:27:01.851Z,15.13
2022-12-12T16:29:36.309Z,15.43
2022-12-12T16:32:05.046Z,15.77
2022-12-12T16:34:59.858Z,15.85
2022-12-12T16:37:28.004Z,16.27
2022-12-12T16:40:21.886Z,14.38
2022-12-12T16:43:11.102Z,15.57
2022-12-12T16:45:41.539Z,14.43
2022-12-12T16:48:21.600Z,13.23
2022-12-12T16:50:58.714Z,14.02
2022-12-12T16:53:28.361Z,16.27
2022-12-12T16:58:52.478Z,17.17
2022-12-12T17:01:22.863Z,18.33
2022-12-12T17:03:58.405Z,19.75
2022-12-12T17:13:50.343Z,16.67
2022-12-12T17:16:50.109Z,16.88
2022-12-12T17:19:30.080Z,15.27
2022-12-12T17:22:07.383Z,17.73
2022-12-12T17:24:42.316Z,17.15
2022-12-12T17:30:01.817Z,17.98
2022-12-12T17:32:35.706Z,18.98
2022-12-12T17:40:44.156Z,18.52
2022-12-12T17:43:32.467Z,21.65
2022-12-12T17:46:07.987Z,20.30
2022-12-12T17:49:15.169Z,22.90
2022-12-12T17:52:28.794Z,20.50
2022-12-12T17:55:52.353Z,19.65
2022-12-12T17:57:47.876Z,23.20
2022-12-12T18:00:19.591Z,21.55
2022-12-12T18:02:51.610Z,23.63
2022-12-12T18:11:17.344Z,19.42
2022-12-12T18:13:51.099Z,17.65
2022-12-12T18:16:21.111Z,21.20
2022-12-12T18:22:01.270Z,22.45
2022-12-12T18:24:56.184Z,21.52
2022-12-12T18:27:51.883Z,20.60
2022-12-12T18:30:20.006Z,21.50
2022-12-12T18:33:16.670Z,20.60
2022-12-12T18:35:53.309Z,19.67
2022-12-12T18:41:16.894Z,23.05
2022-12-12T18:43:51.553Z,18.77
2022-12-12T18:46:22.474Z,19.30
2022-12-12T18:49:18.183Z,20.20
2022-12-12T18:51:49.082Z,19.67
2022-12-12T18:54:19.516Z,19.20
2022-12-12T19:02:36.440Z,20.73
2022-12-12T19:05:05.881Z,20.15
2022-12-12T19:07:38.561Z,20.88
2022-12-12T19:10:13.827Z,20.80
2022-12-12T19:12:43.348Z,19.30
2022-12-12T19:15:17.387Z,20.38
2022-12-12T19:17:48.682Z,21.33
2022-12-12T19:20:20.382Z,22.63
2022-12-12T19:22:48.938Z,20.50
2022-12-12T19:25:18.865Z,19.63
2022-12-12T19:28:12.548Z,16.33
2022-12-12T19:30:42.830Z,20.15
2022-12-12T19:33:22.810Z,19.92
2022-12-12T19:38:52.810Z,22.15
2022-12-12T19:41:24.873Z,21.50
2022-12-12T19:44:06.568Z,22.85
2022-12-12T19:46:46.475Z,22.77
2022-12-12T19:49:17.359Z,24.25
2022-12-12T19:51:53.385Z,22.10
2022-12-12T19:54:23.322Z,21.40
2022-12-12T19:56:51.804Z,21.40
2022-12-12T19:59:25.298Z,20.58
2022-12-12T20:01:55.678Z,18.92
2022-12-12T20:04:26.656Z,19.23
2022-12-12T20:09:38.114Z,23.10
2022-12-12T20:12:08.197Z,22.92
2022-12-12T20:15:07.849Z,21.17
2022-12-12T20:18:00.834Z,20.55
2022-12-12T20:20:39.348Z,22.35
2022-12-12T20:23:16.524Z,20.58
2022-12-12T20:25:54.512Z,22.15
2022-12-12T20:28:48.197Z,21.83
2022-12-12T20:31:40.952Z,21.95
2022-12-12T20:34:18.860Z,23.00
2022-12-12T20:36:57.307Z,23.48
2022-12-12T20:39:41.010Z,21.75
2022-12-12T20:45:08.450Z,22.48
2022-12-12T20:48:28.239Z,20.73
2022-12-12T20:51:01.270Z,21.20
2022-12-12T20:53:46.678Z,19.90
2022-12-12T20:56:29.282Z,20.45
2022-12-12T20:59:02.454Z,19.45
2022-12-12T21:04:22.801Z,20.40
2022-12-12T21:06:57.230Z,17.92
2022-12-12T21:09:35.921Z,21.17
2022-12-12T21:15:27.047Z,19.42
2022-12-12T21:17:58.517Z,18.58
2022-12-12T21:20:29.735Z,18.70
2022-12-12T21:26:00.915Z,18.70
2022-12-12T21:28:27.684Z,19.13
2022-12-12T21:30:58.686Z,16.88
2022-12-12T21:33:35.450Z,17.20
2022-12-12T21:36:18.459Z,19.95
2022-12-12T21:38:48.698Z,18.95
2022-12-12T21:41:26.038Z,17.98
2022-12-12T21:43:57.852Z,17.00
2022-12-12T21:46:34.585Z,21.05
2022-12-12T21:49:23.461Z,17.73
2022-12-12T21:52:06.391Z,18.73
2022-12-12T21:54:55.212Z,17.23
2022-12-12T21:57:29.359Z,17.50
2022-12-12T22:00:17.660Z,19.85
2022-12-12T22:02:51.808Z,17.83
2022-12-12T22:05:31.035Z,20.00
2022-12-12T22:08:12.795Z,17.08
2022-12-12T22:10:58.636Z,19.17
2022-12-12T22:13:46.072Z,16.42
2022-12-12T22:16:37.189Z,18.80
2022-12-12T22:19:11.312Z,20.10
2022-12-12T22:21:46.499Z,19.88
2022-12-12T22:24:44.705Z,18.20
2022-12-12T22:27:42.570Z,19.67
2022-12-12T22:30:13.142Z,17.35
2022-12-12T22:32:44.001Z,17.48
2022-12-12T22:35:13.207Z,17.17
2022-12-12T22:51:41.677Z,15.90
2022-12-12T22:54:11.226Z,18.27
2022-12-12T22:56:53.917Z,18.38
2022-12-12T22:59:27.989Z,20.40
2022-12-12T23:02:01.706Z,18.10
2022-12-12T23:04:35.865Z,19.48
2022-12-12T23:07:07.593Z,18.70
2022-12-12T23:12:49.091Z,18.88
2022-12-12T23:15:24.663Z,19.27
2022-12-12T23:17:57.176Z,19.15
2022-12-12T23:23:27.411Z,17.83
2022-12-12T23:29:02.728Z,19.40
2022-12-12T23:31:37.634Z,15.65
2022-12-12T23:34:29.598Z,16.88
2022-12-12T23:37:00.039Z,19.17
2022-12-12T23:39:56.033Z,19.10
2022-12-12T23:42:32.043Z,19.75
2022-12-12T23:45:04.109Z,18.92
2022-12-12T23:47:35.137Z,15.65
2022-12-12T23:50:40.035Z,18.73
2022-12-12T23:53:34.748Z,16.48
2022-12-12T23:56:32.507Z,16.50
2022-12-12T23:59:17.942Z,18.98
